sensor_id;sensor_type;location;lat;lon;timestamp;temperature;humidity
3418;DHT22;1722;51.316;12.370;2022-11-24T00:00:36;5.20;92.50
3418;DHT22;1722;51.316;12.370;2022-11-24T00:03:04;5.30;92.40
3418;DHT22;1722;51.316;12.370;2022-11-24T00:05:34;5.40;92.30
3418;DHT22;1722;51.316;12.370;2022-11-24T00:08:03;5.40;92.10
3418;DHT22;1722;51.316;12.370;2022-11-24T00:10:32;5.50;92.10
3418;DHT22;1722;51.316;12.370;2022-11-24T00:13:00;5.50;92.00
3418;DHT22;1722;51.316;12.370;2022-11-24T00:15:28;5.40;92.00
3418;DHT22;1722;51.316;12.370;2022-11-24T00:17:56;5.50;91.90
3418;DHT22;1722;51.316;12.370;2022-11-24T00:20:23;5.50;91.90
3418;DHT22;1722;51.316;12.370;2022-11-24T00:22:51;5.40;92.10
3418;DHT22;1722;51.316;12.370;2022-11-24T00:25:18;5.30;92.00
3418;DHT22;1722;51.316;12.370;2022-11-24T00:27:46;5.30;92.40
3418;DHT22;1722;51.316;12.370;2022-11-24T00:30:14;5.30;92.30
3418;DHT22;1722;51.316;12.370;2022-11-24T00:32:43;5.40;92.00
3418;DHT22;1722;51.316;12.370;2022-11-24T00:35:10;5.40;91.90
3418;DHT22;1722;51.316;12.370;2022-11-24T00:37:38;5.50;91.70
3418;DHT22;1722;51.316;12.370;2022-11-24T00:40:06;5.40;91.80
3418;DHT22;1722;51.316;12.370;2022-11-24T00:42:34;5.50;91.80
3418;DHT22;1722;51.316;12.370;2022-11-24T00:45:02;5.50;92.00
3418;DHT22;1722;51.316;12.370;2022-11-24T00:47:29;5.50;91.70
3418;DHT22;1722;51.316;12.370;2022-11-24T00:49:59;5.50;91.60
3418;DHT22;1722;51.316;12.370;2022-11-24T00:52:27;5.50;91.60
3418;DHT22;1722;51.316;12.370;2022-11-24T00:54:54;5.40;91.70
3418;DHT22;1722;51.316;12.370;2022-11-24T00:57:22;5.50;91.60
3418;DHT22;1722;51.316;12.370;2022-11-24T00:59:49;5.50;91.60
3418;DHT22;1722;51.316;12.370;2022-11-24T01:02:39;5.60;91.50
3418;DHT22;1722;51.316;12.370;2022-11-24T01:05:30;5.50;91.50
3418;DHT22;1722;51.316;12.370;2022-11-24T01:08:04;5.60;91.50
3418;DHT22;1722;51.316;12.370;2022-11-24T01:14:27;5.60;91.40
3418;DHT22;1722;51.316;12.370;2022-11-24T01:17:15;5.50;91.50
3418;DHT22;1722;51.316;12.370;2022-11-24T01:20:25;5.40;91.70
3418;DHT22;1722;51.316;12.370;2022-11-24T01:32:35;5.30;91.90
3418;DHT22;1722;51.316;12.370;2022-11-24T01:35:06;5.20;92.00
3418;DHT22;1722;51.316;12.370;2022-11-24T01:41:18;5.20;92.00
3418;DHT22;1722;51.316;12.370;2022-11-24T01:43:57;5.30;92.00
3418;DHT22;1722;51.316;12.370;2022-11-24T01:49:54;5.20;92.10
3418;DHT22;1722;51.316;12.370;2022-11-24T01:52:30;5.20;92.30
3418;DHT22;1722;51.316;12.370;2022-11-24T01:55:39;5.10;92.20
3418;DHT22;1722;51.316;12.370;2022-11-24T01:58:11;5.10;92.30
3418;DHT22;1722;51.316;12.370;2022-11-24T02:01:27;5.10;92.50
3418;DHT22;1722;51.316;12.370;2022-11-24T02:04:34;5.10;92.40
3418;DHT22;1722;51.316;12.370;2022-11-24T02:07:02;5.10;92.30
3418;DHT22;1722;51.316;12.370;2022-11-24T02:09:55;5.20;92.30
3418;DHT22;1722;51.316;12.370;2022-11-24T02:12:48;5.30;92.10
3418;DHT22;1722;51.316;12.370;2022-11-24T02:15:47;5.20;92.10
3418;DHT22;1722;51.316;12.370;2022-11-24T02:18:33;5.30;92.00
3418;DHT22;1722;51.316;12.370;2022-11-24T02:28:31;5.20;92.30
3418;DHT22;1722;51.316;12.370;2022-11-24T02:31:00;5.10;92.50
3418;DHT22;1722;51.316;12.370;2022-11-24T02:34:29;5.10;92.60
3418;DHT22;1722;51.316;12.370;2022-11-24T02:45:47;5.20;92.30
3418;DHT22;1722;51.316;12.370;2022-11-24T02:50:41;5.20;92.30
3418;DHT22;1722;51.316;12.370;2022-11-24T02:53:21;5.20;92.20
3418;DHT22;1722;51.316;12.370;2022-11-24T02:55:48;5.20;92.20
3418;DHT22;1722;51.316;12.370;2022-11-24T02:58:37;5.30;92.10
3418;DHT22;1722;51.316;12.370;2022-11-24T03:01:21;5.20;92.30
3418;DHT22;1722;51.316;12.370;2022-11-24T03:03:48;5.20;92.40
3418;DHT22;1722;51.316;12.370;2022-11-24T03:06:16;5.20;92.40
3418;DHT22;1722;51.316;12.370;2022-11-24T03:11:57;5.30;92.20
3418;DHT22;1722;51.316;12.370;2022-11-24T03:14:47;5.30;92.20
3418;DHT22;1722;51.316;12.370;2022-11-24T03:17:35;5.30;92.30
3418;DHT22;1722;51.316;12.370;2022-11-24T03:20:26;5.40;92.30
3418;DHT22;1722;51.316;12.370;2022-11-24T03:23:03;5.40;92.00
3418;DHT22;1722;51.316;12.370;2022-11-24T03:26:12;5.30;92.30
3418;DHT22;1722;51.316;12.370;2022-11-24T03:32:05;5.30;92.70
3418;DHT22;1722;51.316;12.370;2022-11-24T03:34:37;5.20;93.00
3418;DHT22;1722;51.316;12.370;2022-11-24T03:41:16;5.00;93.70
3418;DHT22;1722;51.316;12.370;2022-11-24T03:44:01;5.00;93.90
3418;DHT22;1722;51.316;12.370;2022-11-24T03:46:29;5.10;93.60
3418;DHT22;1722;51.316;12.370;2022-11-24T03:48:59;5.20;93.50
3418;DHT22;1722;51.316;12.370;2022-11-24T03:51:34;5.20;93.70
3418;DHT22;1722;51.316;12.370;2022-11-24T03:54:35;5.20;93.40
3418;DHT22;1722;51.316;12.370;2022-11-24T03:57:26;5.30;93.30
3418;DHT22;1722;51.316;12.370;2022-11-24T04:03:26;5.30;93.70
3418;DHT22;1722;51.316;12.370;2022-11-24T04:09:35;5.40;93.80
3418;DHT22;1722;51.316;12.370;2022-11-24T04:12:09;5.40;93.70
3418;DHT22;1722;51.316;12.370;2022-11-24T04:15:33;5.40;93.70
3418;DHT22;1722;51.316;12.370;2022-11-24T04:18:59;5.50;93.60
3418;DHT22;1722;51.316;12.370;2022-11-24T04:22:29;5.50;93.80
3418;DHT22;1722;51.316;12.370;2022-11-24T04:25:01;5.60;93.60
3418;DHT22;1722;51.316;12.370;2022-11-24T04:27:58;5.50;94.40
3418;DHT22;1722;51.316;12.370;2022-11-24T04:31:05;5.40;94.70
3418;DHT22;1722;51.316;12.370;2022-11-24T04:33:41;5.40;94.10
3418;DHT22;1722;51.316;12.370;2022-11-24T04:36:12;5.50;94.60
3418;DHT22;1722;51.316;12.370;2022-11-24T04:42:27;5.60;94.50
3418;DHT22;1722;51.316;12.370;2022-11-24T04:44:54;5.60;94.90
3418;DHT22;1722;51.316;12.370;2022-11-24T04:47:46;5.50;95.30
3418;DHT22;1722;51.316;12.370;2022-11-24T04:50:29;5.50;95.30
3418;DHT22;1722;51.316;12.370;2022-11-24T04:53:05;5.50;95.30
3418;DHT22;1722;51.316;12.370;2022-11-24T04:56:12;5.60;95.10
3418;DHT22;1722;51.316;12.370;2022-11-24T04:58:41;5.60;95.30
3418;DHT22;1722;51.316;12.370;2022-11-24T05:01:24;5.50;96.00
3418;DHT22;1722;51.316;12.370;2022-11-24T05:04:28;5.50;95.70
3418;DHT22;1722;51.316;12.370;2022-11-24T05:07:30;5.60;95.40
3418;DHT22;1722;51.316;12.370;2022-11-24T05:10:56;5.70;95.30
3418;DHT22;1722;51.316;12.370;2022-11-24T05:13:24;5.70;95.10
3418;DHT22;1722;51.316;12.370;2022-11-24T05:16:11;5.80;94.50
3418;DHT22;1722;51.316;12.370;2022-11-24T05:18:38;5.90;94.20
3418;DHT22;1722;51.316;12.370;2022-11-24T05:21:24;5.90;94.50
3418;DHT22;1722;51.316;12.370;2022-11-24T05:24:08;5.90;94.30
3418;DHT22;1722;51.316;12.370;2022-11-24T05:27:10;5.90;95.00
3418;DHT22;1722;51.316;12.370;2022-11-24T05:29:43;6.00;94.50
3418;DHT22;1722;51.316;12.370;2022-11-24T05:32:24;6.00;94.70
3418;DHT22;1722;51.316;12.370;2022-11-24T05:38:56;6.00;94.10
3418;DHT22;1722;51.316;12.370;2022-11-24T05:41:40;6.00;94.30
3418;DHT22;1722;51.316;12.370;2022-11-24T05:44:30;6.00;94.10
3418;DHT22;1722;51.316;12.370;2022-11-24T05:47:16;6.00;94.70
3418;DHT22;1722;51.316;12.370;2022-11-24T05:49:45;6.10;94.30
3418;DHT22;1722;51.316;12.370;2022-11-24T05:52:26;6.10;95.20
3418;DHT22;1722;51.316;12.370;2022-11-24T05:55:18;6.00;95.80
3418;DHT22;1722;51.316;12.370;2022-11-24T05:58:19;6.00;96.30
3418;DHT22;1722;51.316;12.370;2022-11-24T06:00:54;5.90;96.40
3418;DHT22;1722;51.316;12.370;2022-11-24T06:10:29;5.90;97.20
3418;DHT22;1722;51.316;12.370;2022-11-24T06:13:11;5.80;97.30
3418;DHT22;1722;51.316;12.370;2022-11-24T06:16:01;5.90;97.40
3418;DHT22;1722;51.316;12.370;2022-11-24T06:18:32;6.00;96.60
3418;DHT22;1722;51.316;12.370;2022-11-24T06:21:17;6.00;96.30
3418;DHT22;1722;51.316;12.370;2022-11-24T06:23:54;6.10;96.40
3418;DHT22;1722;51.316;12.370;2022-11-24T06:26:26;6.10;95.80
3418;DHT22;1722;51.316;12.370;2022-11-24T06:29:05;6.20;95.80
3418;DHT22;1722;51.316;12.370;2022-11-24T06:31:39;6.10;96.90
3418;DHT22;1722;51.316;12.370;2022-11-24T06:34:28;6.00;96.90
3418;DHT22;1722;51.316;12.370;2022-11-24T06:36:58;6.10;97.10
3418;DHT22;1722;51.316;12.370;2022-11-24T06:39:41;6.00;97.30
3418;DHT22;1722;51.316;12.370;2022-11-24T06:42:12;6.00;96.80
3418;DHT22;1722;51.316;12.370;2022-11-24T06:47:37;6.20;95.90
3418;DHT22;1722;51.316;12.370;2022-11-24T06:53:49;6.30;95.20
3418;DHT22;1722;51.316;12.370;2022-11-24T06:56:54;6.30;95.90
3418;DHT22;1722;51.316;12.370;2022-11-24T06:59:38;6.30;96.20
3418;DHT22;1722;51.316;12.370;2022-11-24T07:02:25;6.30;96.20
3418;DHT22;1722;51.316;12.370;2022-11-24T07:07:45;6.40;95.70
3418;DHT22;1722;51.316;12.370;2022-11-24T07:10:13;6.40;96.30
3418;DHT22;1722;51.316;12.370;2022-11-24T07:12:41;6.40;95.90
3418;DHT22;1722;51.316;12.370;2022-11-24T07:15:10;6.40;96.20
3418;DHT22;1722;51.316;12.370;2022-11-24T07:17:38;6.50;95.70
3418;DHT22;1722;51.316;12.370;2022-11-24T07:20:08;6.40;96.10
3418;DHT22;1722;51.316;12.370;2022-11-24T07:22:36;6.40;96.40
3418;DHT22;1722;51.316;12.370;2022-11-24T07:25:04;6.40;96.70
3418;DHT22;1722;51.316;12.370;2022-11-24T07:27:35;6.50;96.40
3418;DHT22;1722;51.316;12.370;2022-11-24T07:30:03;6.40;96.50
3418;DHT22;1722;51.316;12.370;2022-11-24T07:32:32;6.50;95.70
3418;DHT22;1722;51.316;12.370;2022-11-24T07:34:59;6.50;95.30
3418;DHT22;1722;51.316;12.370;2022-11-24T07:37:27;6.50;95.60
3418;DHT22;1722;51.316;12.370;2022-11-24T07:39:54;6.60;95.90
3418;DHT22;1722;51.316;12.370;2022-11-24T07:42:22;6.60;96.10
3418;DHT22;1722;51.316;12.370;2022-11-24T07:44:49;6.60;96.20
3418;DHT22;1722;51.316;12.370;2022-11-24T07:47:17;6.60;95.90
3418;DHT22;1722;51.316;12.370;2022-11-24T07:49:46;6.70;95.70
3418;DHT22;1722;51.316;12.370;2022-11-24T07:52:13;6.70;96.30
3418;DHT22;1722;51.316;12.370;2022-11-24T07:54:41;6.70;95.90
3418;DHT22;1722;51.316;12.370;2022-11-24T07:57:08;6.60;96.90
3418;DHT22;1722;51.316;12.370;2022-11-24T07:59:36;6.60;96.70
3418;DHT22;1722;51.316;12.370;2022-11-24T08:02:03;6.60;96.80
3418;DHT22;1722;51.316;12.370;2022-11-24T08:04:31;6.60;96.90
3418;DHT22;1722;51.316;12.370;2022-11-24T08:07:01;6.60;97.00
3418;DHT22;1722;51.316;12.370;2022-11-24T08:09:28;6.70;96.50
3418;DHT22;1722;51.316;12.370;2022-11-24T08:11:56;6.70;96.80
3418;DHT22;1722;51.316;12.370;2022-11-24T08:14:23;6.70;96.40
3418;DHT22;1722;51.316;12.370;2022-11-24T08:16:51;6.80;96.70
3418;DHT22;1722;51.316;12.370;2022-11-24T08:19:20;6.80;97.00
3418;DHT22;1722;51.316;12.370;2022-11-24T08:21:47;6.80;96.50
3418;DHT22;1722;51.316;12.370;2022-11-24T08:24:16;6.90;96.30
3418;DHT22;1722;51.316;12.370;2022-11-24T08:26:44;6.90;96.20
3418;DHT22;1722;51.316;12.370;2022-11-24T08:29:11;7.00;96.50
3418;DHT22;1722;51.316;12.370;2022-11-24T08:31:39;7.00;96.90
3418;DHT22;1722;51.316;12.370;2022-11-24T08:34:07;7.00;96.80
3418;DHT22;1722;51.316;12.370;2022-11-24T08:36:35;6.90;97.40
3418;DHT22;1722;51.316;12.370;2022-11-24T08:39:02;6.80;97.70
3418;DHT22;1722;51.316;12.370;2022-11-24T08:41:31;6.80;97.70
3418;DHT22;1722;51.316;12.370;2022-11-24T08:43:59;6.80;98.10
3418;DHT22;1722;51.316;12.370;2022-11-24T08:46:26;6.80;98.10
3418;DHT22;1722;51.316;12.370;2022-11-24T08:48:55;6.90;98.20
3418;DHT22;1722;51.316;12.370;2022-11-24T08:51:24;6.90;98.10
3418;DHT22;1722;51.316;12.370;2022-11-24T08:53:53;7.00;98.10
3418;DHT22;1722;51.316;12.370;2022-11-24T08:56:22;7.00;98.40
3418;DHT22;1722;51.316;12.370;2022-11-24T08:58:52;7.00;98.20
3418;DHT22;1722;51.316;12.370;2022-11-24T09:01:20;7.00;98.20
3418;DHT22;1722;51.316;12.370;2022-11-24T09:03:48;7.00;98.30
3418;DHT22;1722;51.316;12.370;2022-11-24T09:06:17;7.10;98.30
3418;DHT22;1722;51.316;12.370;2022-11-24T09:08:44;7.10;98.20
3418;DHT22;1722;51.316;12.370;2022-11-24T09:11:13;7.20;98.10
3418;DHT22;1722;51.316;12.370;2022-11-24T09:13:41;7.20;98.10
3418;DHT22;1722;51.316;12.370;2022-11-24T09:16:12;7.30;98.10
3418;DHT22;1722;51.316;12.370;2022-11-24T09:18:40;7.30;98.10
3418;DHT22;1722;51.316;12.370;2022-11-24T09:21:09;7.40;98.00
3418;DHT22;1722;51.316;12.370;2022-11-24T09:23:38;7.40;98.00
3418;DHT22;1722;51.316;12.370;2022-11-24T09:26:09;7.40;98.00
3418;DHT22;1722;51.316;12.370;2022-11-24T09:28:36;7.50;97.90
3418;DHT22;1722;51.316;12.370;2022-11-24T09:31:06;7.50;97.90
3418;DHT22;1722;51.316;12.370;2022-11-24T09:33:36;7.60;97.80
3418;DHT22;1722;51.316;12.370;2022-11-24T09:36:05;7.60;97.50
3418;DHT22;1722;51.316;12.370;2022-11-24T09:38:33;7.70;97.40
3418;DHT22;1722;51.316;12.370;2022-11-24T09:41:22;7.70;97.20
3418;DHT22;1722;51.316;12.370;2022-11-24T09:43:59;7.70;97.30
3418;DHT22;1722;51.316;12.370;2022-11-24T09:46:34;7.70;97.40
3418;DHT22;1722;51.316;12.370;2022-11-24T09:49:07;7.80;97.50
3418;DHT22;1722;51.316;12.370;2022-11-24T09:51:36;7.80;97.20
3418;DHT22;1722;51.316;12.370;2022-11-24T09:54:10;7.90;97.00
3418;DHT22;1722;51.316;12.370;2022-11-24T09:56:40;7.90;96.90
3418;DHT22;1722;51.316;12.370;2022-11-24T09:59:13;8.00;97.00
3418;DHT22;1722;51.316;12.370;2022-11-24T10:01:43;8.00;96.80
3418;DHT22;1722;51.316;12.370;2022-11-24T10:04:15;8.00;97.00
3418;DHT22;1722;51.316;12.370;2022-11-24T10:06:48;8.10;96.60
3418;DHT22;1722;51.316;12.370;2022-11-24T10:09:27;8.10;96.70
3418;DHT22;1722;51.316;12.370;2022-11-24T10:12:07;8.10;96.60
3418;DHT22;1722;51.316;12.370;2022-11-24T10:15:12;8.10;96.60
3418;DHT22;1722;51.316;12.370;2022-11-24T10:20:57;8.20;96.70
3418;DHT22;1722;51.316;12.370;2022-11-24T10:23:40;8.20;96.70
3418;DHT22;1722;51.316;12.370;2022-11-24T10:26:16;8.20;96.70
3418;DHT22;1722;51.316;12.370;2022-11-24T10:28:50;8.30;96.50
3418;DHT22;1722;51.316;12.370;2022-11-24T10:31:27;8.30;96.90
3418;DHT22;1722;51.316;12.370;2022-11-24T10:33:57;8.40;96.70
3418;DHT22;1722;51.316;12.370;2022-11-24T10:36:34;8.40;96.50
3418;DHT22;1722;51.316;12.370;2022-11-24T10:39:10;8.40;96.40
3418;DHT22;1722;51.316;12.370;2022-11-24T10:41:45;8.40;96.40
3418;DHT22;1722;51.316;12.370;2022-11-24T10:44:14;8.50;96.50
3418;DHT22;1722;51.316;12.370;2022-11-24T10:46:42;8.50;96.50
3418;DHT22;1722;51.316;12.370;2022-11-24T10:49:16;8.50;96.60
3418;DHT22;1722;51.316;12.370;2022-11-24T10:51:58;8.60;96.40
3418;DHT22;1722;51.316;12.370;2022-11-24T10:54:30;8.60;96.60
3418;DHT22;1722;51.316;12.370;2022-11-24T10:56:58;8.60;96.50
3418;DHT22;1722;51.316;12.370;2022-11-24T10:59:34;8.60;96.30
3418;DHT22;1722;51.316;12.370;2022-11-24T11:02:27;8.60;96.30
3418;DHT22;1722;51.316;12.370;2022-11-24T11:04:56;8.70;96.20
3418;DHT22;1722;51.316;12.370;2022-11-24T11:07:25;8.70;96.10
3418;DHT22;1722;51.316;12.370;2022-11-24T11:10:19;8.80;96.00
3418;DHT22;1722;51.316;12.370;2022-11-24T11:12:47;8.80;95.80
3418;DHT22;1722;51.316;12.370;2022-11-24T11:15:22;8.80;96.10
3418;DHT22;1722;51.316;12.370;2022-11-24T11:17:50;8.90;95.90
3418;DHT22;1722;51.316;12.370;2022-11-24T11:20:27;8.90;95.80
3418;DHT22;1722;51.316;12.370;2022-11-24T11:22:59;8.90;95.70
3418;DHT22;1722;51.316;12.370;2022-11-24T11:25:31;9.00;95.90
3418;DHT22;1722;51.316;12.370;2022-11-24T11:28:17;9.00;95.80
3418;DHT22;1722;51.316;12.370;2022-11-24T11:30:55;9.00;95.70
3418;DHT22;1722;51.316;12.370;2022-11-24T11:33:26;9.00;95.70
3418;DHT22;1722;51.316;12.370;2022-11-24T11:35:55;9.00;95.90
3418;DHT22;1722;51.316;12.370;2022-11-24T11:38:25;9.00;95.90
3418;DHT22;1722;51.316;12.370;2022-11-24T11:40:56;9.10;96.00
3418;DHT22;1722;51.316;12.370;2022-11-24T11:43:26;9.10;96.00
3418;DHT22;1722;51.316;12.370;2022-11-24T11:45:59;9.10;95.90
3418;DHT22;1722;51.316;12.370;2022-11-24T11:48:31;9.20;95.90
3418;DHT22;1722;51.316;12.370;2022-11-24T11:51:02;9.10;95.90
3418;DHT22;1722;51.316;12.370;2022-11-24T11:53:40;9.20;96.00
3418;DHT22;1722;51.316;12.370;2022-11-24T11:56:19;9.20;95.80
3418;DHT22;1722;51.316;12.370;2022-11-24T11:59:18;9.30;95.90
3418;DHT22;1722;51.316;12.370;2022-11-24T12:04:51;9.40;95.60
3418;DHT22;1722;51.316;12.370;2022-11-24T12:07:42;9.40;95.40
3418;DHT22;1722;51.316;12.370;2022-11-24T12:10:22;9.40;95.10
3418;DHT22;1722;51.316;12.370;2022-11-24T12:13:07;9.40;95.20
3418;DHT22;1722;51.316;12.370;2022-11-24T12:15:38;9.50;95.10
3418;DHT22;1722;51.316;12.370;2022-11-24T12:18:21;9.50;95.10
3418;DHT22;1722;51.316;12.370;2022-11-24T12:20:59;9.60;95.10
3418;DHT22;1722;51.316;12.370;2022-11-24T12:23:38;9.70;94.80
3418;DHT22;1722;51.316;12.370;2022-11-24T12:26:17;9.70;94.70
3418;DHT22;1722;51.316;12.370;2022-11-24T12:28:57;9.80;94.80
3418;DHT22;1722;51.316;12.370;2022-11-24T12:31:38;9.80;94.50
3418;DHT22;1722;51.316;12.370;2022-11-24T12:34:23;9.90;94.50
3418;DHT22;1722;51.316;12.370;2022-11-24T12:37:10;9.90;94.40
3418;DHT22;1722;51.316;12.370;2022-11-24T12:39:48;9.90;94.40
3418;DHT22;1722;51.316;12.370;2022-11-24T12:42:29;9.90;94.50
3418;DHT22;1722;51.316;12.370;2022-11-24T12:45:17;9.90;94.40
3418;DHT22;1722;51.316;12.370;2022-11-24T12:48:07;9.90;94.30
3418;DHT22;1722;51.316;12.370;2022-11-24T12:50:37;9.90;94.10
3418;DHT22;1722;51.316;12.370;2022-11-24T12:53:11;9.90;94.30
3418;DHT22;1722;51.316;12.370;2022-11-24T12:55:40;10.00;94.20
3418;DHT22;1722;51.316;12.370;2022-11-24T12:58:15;10.00;93.90
3418;DHT22;1722;51.316;12.370;2022-11-24T13:00:54;10.00;93.20
3418;DHT22;1722;51.316;12.370;2022-11-24T13:03:35;10.00;93.40
3418;DHT22;1722;51.316;12.370;2022-11-24T13:06:12;10.00;93.30
3418;DHT22;1722;51.316;12.370;2022-11-24T13:08:42;9.90;93.30
3418;DHT22;1722;51.316;12.370;2022-11-24T13:11:39;10.00;93.30
3418;DHT22;1722;51.316;12.370;2022-11-24T13:14:14;10.10;93.30
3418;DHT22;1722;51.316;12.370;2022-11-24T13:16:53;10.10;93.30
3418;DHT22;1722;51.316;12.370;2022-11-24T13:19:22;10.10;93.50
3418;DHT22;1722;51.316;12.370;2022-11-24T13:22:02;10.10;93.60
3418;DHT22;1722;51.316;12.370;2022-11-24T13:24:31;10.10;93.80
3418;DHT22;1722;51.316;12.370;2022-11-24T13:27:39;10.20;93.70
3418;DHT22;1722;51.316;12.370;2022-11-24T13:33:37;10.20;93.80
3418;DHT22;1722;51.316;12.370;2022-11-24T13:36:30;10.20;93.70
3418;DHT22;1722;51.316;12.370;2022-11-24T13:38:59;10.20;93.70
3418;DHT22;1722;51.316;12.370;2022-11-24T13:42:01;10.30;93.60
3418;DHT22;1722;51.316;12.370;2022-11-24T13:44:45;10.20;93.60
3418;DHT22;1722;51.316;12.370;2022-11-24T13:47:41;10.30;93.50
3418;DHT22;1722;51.316;12.370;2022-11-24T13:53:32;10.20;93.60
3418;DHT22;1722;51.316;12.370;2022-11-24T13:56:18;10.30;93.50
3418;DHT22;1722;51.316;12.370;2022-11-24T13:58:48;10.30;93.50
3418;DHT22;1722;51.316;12.370;2022-11-24T14:01:18;10.30;93.40
3418;DHT22;1722;51.316;12.370;2022-11-24T14:03:56;10.20;93.60
3418;DHT22;1722;51.316;12.370;2022-11-24T14:06:30;10.20;93.60
3418;DHT22;1722;51.316;12.370;2022-11-24T14:09:00;10.30;93.60
3418;DHT22;1722;51.316;12.370;2022-11-24T14:11:30;10.20;93.60
3418;DHT22;1722;51.316;12.370;2022-11-24T14:13:58;10.30;93.60
3418;DHT22;1722;51.316;12.370;2022-11-24T14:16:38;10.30;93.40
3418;DHT22;1722;51.316;12.370;2022-11-24T14:19:09;10.30;93.40
3418;DHT22;1722;51.316;12.370;2022-11-24T14:21:39;10.30;93.30
3418;DHT22;1722;51.316;12.370;2022-11-24T14:24:11;10.30;93.50
3418;DHT22;1722;51.316;12.370;2022-11-24T14:26:45;10.30;93.60
3418;DHT22;1722;51.316;12.370;2022-11-24T14:29:15;10.30;93.60
3418;DHT22;1722;51.316;12.370;2022-11-24T14:31:51;10.30;93.80
3418;DHT22;1722;51.316;12.370;2022-11-24T14:34:21;10.20;93.80
3418;DHT22;1722;51.316;12.370;2022-11-24T14:36:51;10.20;93.60
3418;DHT22;1722;51.316;12.370;2022-11-24T14:39:20;10.20;93.80
3418;DHT22;1722;51.316;12.370;2022-11-24T14:41:51;10.20;94.00
3418;DHT22;1722;51.316;12.370;2022-11-24T14:44:21;10.20;94.20
3418;DHT22;1722;51.316;12.370;2022-11-24T14:46:58;10.20;93.80
3418;DHT22;1722;51.316;12.370;2022-11-24T14:49:26;10.20;93.80
3418;DHT22;1722;51.316;12.370;2022-11-24T14:51:59;10.30;93.80
3418;DHT22;1722;51.316;12.370;2022-11-24T14:54:28;10.20;93.80
3418;DHT22;1722;51.316;12.370;2022-11-24T14:56:59;10.30;93.80
3418;DHT22;1722;51.316;12.370;2022-11-24T14:59:28;10.30;93.90
3418;DHT22;1722;51.316;12.370;2022-11-24T15:01:57;10.20;93.50
3418;DHT22;1722;51.316;12.370;2022-11-24T15:04:25;10.20;93.60
3418;DHT22;1722;51.316;12.370;2022-11-24T15:07:17;10.30;93.50
3418;DHT22;1722;51.316;12.370;2022-11-24T15:09:50;10.20;93.40
3418;DHT22;1722;51.316;12.370;2022-11-24T15:12:24;10.20;93.40
3418;DHT22;1722;51.316;12.370;2022-11-24T15:14:56;10.20;93.40
3418;DHT22;1722;51.316;12.370;2022-11-24T15:17:26;10.20;93.40
3418;DHT22;1722;51.316;12.370;2022-11-24T15:19:57;10.20;93.60
3418;DHT22;1722;51.316;12.370;2022-11-24T15:22:36;10.10;93.50
3418;DHT22;1722;51.316;12.370;2022-11-24T15:25:34;10.10;93.70
3418;DHT22;1722;51.316;12.370;2022-11-24T15:28:02;10.10;93.60
3418;DHT22;1722;51.316;12.370;2022-11-24T15:30:33;10.20;93.60
3418;DHT22;1722;51.316;12.370;2022-11-24T15:33:01;10.20;93.50
3418;DHT22;1722;51.316;12.370;2022-11-24T15:35:30;10.20;93.50
3418;DHT22;1722;51.316;12.370;2022-11-24T15:37:59;10.20;93.50
3418;DHT22;1722;51.316;12.370;2022-11-24T15:40:27;10.20;93.40
3418;DHT22;1722;51.316;12.370;2022-11-24T15:42:55;10.10;93.40
3418;DHT22;1722;51.316;12.370;2022-11-24T15:45:24;10.20;93.50
3418;DHT22;1722;51.316;12.370;2022-11-24T15:47:52;10.10;93.50
3418;DHT22;1722;51.316;12.370;2022-11-24T15:50:20;10.10;93.60
3418;DHT22;1722;51.316;12.370;2022-11-24T15:52:48;10.10;93.70
3418;DHT22;1722;51.316;12.370;2022-11-24T15:55:19;10.10;93.50
3418;DHT22;1722;51.316;12.370;2022-11-24T15:57:47;10.10;93.70
3418;DHT22;1722;51.316;12.370;2022-11-24T16:00:17;10.20;94.50
3418;DHT22;1722;51.316;12.370;2022-11-24T16:02:45;10.20;94.20
3418;DHT22;1722;51.316;12.370;2022-11-24T16:05:13;10.20;93.80
3418;DHT22;1722;51.316;12.370;2022-11-24T16:07:42;10.20;93.70
3418;DHT22;1722;51.316;12.370;2022-11-24T16:10:20;10.20;93.60
3418;DHT22;1722;51.316;12.370;2022-11-24T16:12:49;10.20;93.60
3418;DHT22;1722;51.316;12.370;2022-11-24T16:15:17;10.20;93.80
3418;DHT22;1722;51.316;12.370;2022-11-24T16:17:45;10.10;94.10
3418;DHT22;1722;51.316;12.370;2022-11-24T16:20:13;10.10;94.10
3418;DHT22;1722;51.316;12.370;2022-11-24T16:22:41;10.10;93.90
3418;DHT22;1722;51.316;12.370;2022-11-24T16:25:09;10.10;94.20
3418;DHT22;1722;51.316;12.370;2022-11-24T16:27:38;10.00;94.40
3418;DHT22;1722;51.316;12.370;2022-11-24T16:30:07;10.10;94.20
3418;DHT22;1722;51.316;12.370;2022-11-24T16:32:35;10.10;94.30
3418;DHT22;1722;51.316;12.370;2022-11-24T16:35:03;10.00;94.00
3418;DHT22;1722;51.316;12.370;2022-11-24T16:37:31;10.10;94.00
3418;DHT22;1722;51.316;12.370;2022-11-24T16:39:59;10.00;94.00
3418;DHT22;1722;51.316;12.370;2022-11-24T16:42:28;10.00;94.10
3418;DHT22;1722;51.316;12.370;2022-11-24T16:44:57;10.00;94.00
3418;DHT22;1722;51.316;12.370;2022-11-24T16:47:25;10.10;94.00
3418;DHT22;1722;51.316;12.370;2022-11-24T16:49:52;10.10;94.10
3418;DHT22;1722;51.316;12.370;2022-11-24T16:52:20;10.10;94.00
3418;DHT22;1722;51.316;12.370;2022-11-24T16:54:47;10.10;94.00
3418;DHT22;1722;51.316;12.370;2022-11-24T16:57:15;10.00;94.10
3418;DHT22;1722;51.316;12.370;2022-11-24T16:59:43;10.10;94.10
3418;DHT22;1722;51.316;12.370;2022-11-24T17:02:12;10.00;94.10
3418;DHT22;1722;51.316;12.370;2022-11-24T17:04:40;10.00;94.10
3418;DHT22;1722;51.316;12.370;2022-11-24T17:07:07;10.10;94.10
3418;DHT22;1722;51.316;12.370;2022-11-24T17:09:35;10.00;94.20
3418;DHT22;1722;51.316;12.370;2022-11-24T17:12:03;10.00;94.10
3418;DHT22;1722;51.316;12.370;2022-11-24T17:14:30;10.00;94.10
3418;DHT22;1722;51.316;12.370;2022-11-24T17:16:58;10.00;94.10
3418;DHT22;1722;51.316;12.370;2022-11-24T17:19:27;10.00;94.10
3418;DHT22;1722;51.316;12.370;2022-11-24T17:21:56;10.00;94.10
3418;DHT22;1722;51.316;12.370;2022-11-24T17:24:24;10.00;94.10
3418;DHT22;1722;51.316;12.370;2022-11-24T17:26:52;10.00;94.40
3418;DHT22;1722;51.316;12.370;2022-11-24T17:29:19;10.00;94.00
3418;DHT22;1722;51.316;12.370;2022-11-24T17:31:47;10.00;94.00
3418;DHT22;1722;51.316;12.370;2022-11-24T17:34:14;10.00;94.00
3418;DHT22;1722;51.316;12.370;2022-11-24T17:36:43;10.00;94.00
3418;DHT22;1722;51.316;12.370;2022-11-24T17:39:11;10.00;94.10
3418;DHT22;1722;51.316;12.370;2022-11-24T17:41:38;10.00;94.10
3418;DHT22;1722;51.316;12.370;2022-11-24T17:44:06;10.00;94.10
3418;DHT22;1722;51.316;12.370;2022-11-24T17:46:35;10.00;94.00
3418;DHT22;1722;51.316;12.370;2022-11-24T17:49:04;10.00;94.30
3418;DHT22;1722;51.316;12.370;2022-11-24T17:51:33;10.00;94.00
3418;DHT22;1722;51.316;12.370;2022-11-24T17:54:02;10.00;93.90
3418;DHT22;1722;51.316;12.370;2022-11-24T17:56:30;10.00;93.90
3418;DHT22;1722;51.316;12.370;2022-11-24T17:58:59;10.00;93.90
3418;DHT22;1722;51.316;12.370;2022-11-24T18:01:27;10.00;93.90
3418;DHT22;1722;51.316;12.370;2022-11-24T18:03:57;10.00;93.90
3418;DHT22;1722;51.316;12.370;2022-11-24T18:06:25;10.00;93.90
3418;DHT22;1722;51.316;12.370;2022-11-24T18:08:55;10.00;93.90
3418;DHT22;1722;51.316;12.370;2022-11-24T18:11:26;10.00;93.90
3418;DHT22;1722;51.316;12.370;2022-11-24T18:13:55;10.00;93.90
3418;DHT22;1722;51.316;12.370;2022-11-24T18:16:24;10.00;93.80
3418;DHT22;1722;51.316;12.370;2022-11-24T18:18:54;10.00;93.90
3418;DHT22;1722;51.316;12.370;2022-11-24T18:21:24;10.00;93.70